sensor_id;sensor_type;location;lat;lon;timestamp;P1;durP1;ratioP1;P2;durP2;ratioP2
69953;SDS011;57276;51.364;12.376;2023-06-19T00:05:07;10.97;;;7.53;;
69953;SDS011;57276;51.364;12.376;2023-06-19T00:11:09;9.88;;;7.43;;
69953;SDS011;57276;51.364;12.376;2023-06-19T00:17:10;10.30;;;6.88;;
69953;SDS011;57276;51.364;12.376;2023-06-19T00:23:12;10.40;;;7.03;;
69953;SDS011;57276;51.364;12.376;2023-06-19T00:29:15;9.85;;;7.20;;
69953;SDS011;57276;51.364;12.376;2023-06-19T00:35:17;9.27;;;7.30;;
69953;SDS011;57276;51.364;12.376;2023-06-19T00:41:23;10.00;;;7.70;;
69953;SDS011;57276;51.364;12.376;2023-06-19T00:47:27;9.57;;;7.13;;
69953;SDS011;57276;51.364;12.376;2023-06-19T00:53:30;10.03;;;7.27;;
69953;SDS011;57276;51.364;12.376;2023-06-19T00:59:32;11.85;;;7.38;;
69953;SDS011;57276;51.364;12.376;2023-06-19T01:05:35;10.67;;;7.67;;
69953;SDS011;57276;51.364;12.376;2023-06-19T01:11:44;10.20;;;6.78;;
69953;SDS011;57276;51.364;12.376;2023-06-19T01:17:47;10.32;;;7.10;;
69953;SDS011;57276;51.364;12.376;2023-06-19T01:23:49;10.07;;;6.87;;
69953;SDS011;57276;51.364;12.376;2023-06-19T01:29:51;11.57;;;7.28;;
69953;SDS011;57276;51.364;12.376;2023-06-19T01:35:53;11.23;;;7.43;;
69953;SDS011;57276;51.364;12.376;2023-06-19T01:41:55;8.70;;;6.85;;
69953;SDS011;57276;51.364;12.376;2023-06-19T01:47:57;10.18;;;7.10;;
69953;SDS011;57276;51.364;12.376;2023-06-19T01:53:58;10.03;;;7.20;;
69953;SDS011;57276;51.364;12.376;2023-06-19T02:00:00;10.45;;;7.22;;
69953;SDS011;57276;51.364;12.376;2023-06-19T02:06:14;10.20;;;7.50;;
69953;SDS011;57276;51.364;12.376;2023-06-19T02:12:15;11.15;;;7.38;;
69953;SDS011;57276;51.364;12.376;2023-06-19T02:18:17;9.68;;;7.40;;
69953;SDS011;57276;51.364;12.376;2023-06-19T02:24:19;13.07;;;7.93;;
69953;SDS011;57276;51.364;12.376;2023-06-19T02:30:20;9.73;;;7.32;;
69953;SDS011;57276;51.364;12.376;2023-06-19T02:36:22;11.33;;;7.57;;
69953;SDS011;57276;51.364;12.376;2023-06-19T02:42:24;9.90;;;6.95;;
69953;SDS011;57276;51.364;12.376;2023-06-19T02:48:25;9.93;;;7.38;;
69953;SDS011;57276;51.364;12.376;2023-06-19T02:54:27;10.87;;;7.53;;
69953;SDS011;57276;51.364;12.376;2023-06-19T03:00:29;10.00;;;7.60;;
69953;SDS011;57276;51.364;12.376;2023-06-19T03:06:33;10.60;;;7.47;;
69953;SDS011;57276;51.364;12.376;2023-06-19T03:12:41;10.80;;;6.97;;
69953;SDS011;57276;51.364;12.376;2023-06-19T03:18:42;8.77;;;6.82;;
69953;SDS011;57276;51.364;12.376;2023-06-19T03:24:46;11.37;;;7.60;;
69953;SDS011;57276;51.364;12.376;2023-06-19T03:30:55;8.80;;;7.20;;
69953;SDS011;57276;51.364;12.376;2023-06-19T03:36:58;10.53;;;7.63;;
69953;SDS011;57276;51.364;12.376;2023-06-19T03:43:00;10.13;;;7.20;;
69953;SDS011;57276;51.364;12.376;2023-06-19T03:49:02;9.68;;;7.63;;
69953;SDS011;57276;51.364;12.376;2023-06-19T03:55:06;10.13;;;7.27;;
69953;SDS011;57276;51.364;12.376;2023-06-19T04:01:08;11.57;;;7.20;;
69953;SDS011;57276;51.364;12.376;2023-06-19T04:07:10;10.47;;;7.37;;
69953;SDS011;57276;51.364;12.376;2023-06-19T04:13:15;10.13;;;7.60;;
69953;SDS011;57276;51.364;12.376;2023-06-19T04:19:17;11.10;;;8.23;;
69953;SDS011;57276;51.364;12.376;2023-06-19T04:25:19;14.80;;;7.60;;
69953;SDS011;57276;51.364;12.376;2023-06-19T04:31:20;11.43;;;8.02;;
69953;SDS011;57276;51.364;12.376;2023-06-19T04:37:22;10.70;;;7.73;;
69953;SDS011;57276;51.364;12.376;2023-06-19T04:43:24;12.32;;;7.88;;
69953;SDS011;57276;51.364;12.376;2023-06-19T04:49:29;10.85;;;7.72;;
69953;SDS011;57276;51.364;12.376;2023-06-19T04:55:33;12.43;;;7.80;;
69953;SDS011;57276;51.364;12.376;2023-06-19T05:01:35;11.85;;;8.07;;
69953;SDS011;57276;51.364;12.376;2023-06-19T05:07:36;14.93;;;8.43;;
69953;SDS011;57276;51.364;12.376;2023-06-19T05:13:38;12.88;;;8.63;;
69953;SDS011;57276;51.364;12.376;2023-06-19T05:19:40;11.10;;;7.90;;
69953;SDS011;57276;51.364;12.376;2023-06-19T05:25:42;10.60;;;7.30;;
69953;SDS011;57276;51.364;12.376;2023-06-19T05:31:44;14.25;;;8.20;;
69953;SDS011;57276;51.364;12.376;2023-06-19T05:37:48;10.90;;;7.97;;
69953;SDS011;57276;51.364;12.376;2023-06-19T05:43:49;11.13;;;8.07;;
69953;SDS011;57276;51.364;12.376;2023-06-19T05:49:51;14.38;;;8.00;;
69953;SDS011;57276;51.364;12.376;2023-06-19T05:55:53;12.47;;;7.67;;
69953;SDS011;57276;51.364;12.376;2023-06-19T06:01:55;10.88;;;7.90;;
69953;SDS011;57276;51.364;12.376;2023-06-19T06:07:57;12.33;;;8.47;;
69953;SDS011;57276;51.364;12.376;2023-06-19T06:13:59;13.57;;;8.63;;
69953;SDS011;57276;51.364;12.376;2023-06-19T06:20:01;12.43;;;8.00;;
69953;SDS011;57276;51.364;12.376;2023-06-19T06:26:02;11.00;;;8.43;;
69953;SDS011;57276;51.364;12.376;2023-06-19T06:32:05;13.02;;;8.52;;
69953;SDS011;57276;51.364;12.376;2023-06-19T06:38:09;14.80;;;8.73;;
69953;SDS011;57276;51.364;12.376;2023-06-19T06:44:11;14.55;;;8.75;;
69953;SDS011;57276;51.364;12.376;2023-06-19T06:50:12;12.70;;;8.63;;
69953;SDS011;57276;51.364;12.376;2023-06-19T06:56:14;12.83;;;9.30;;
69953;SDS011;57276;51.364;12.376;2023-06-19T07:02:15;14.75;;;9.60;;
69953;SDS011;57276;51.364;12.376;2023-06-19T07:08:17;13.03;;;8.97;;
69953;SDS011;57276;51.364;12.376;2023-06-19T07:14:18;15.35;;;9.15;;
69953;SDS011;57276;51.364;12.376;2023-06-19T07:20:20;14.93;;;9.10;;
69953;SDS011;57276;51.364;12.376;2023-06-19T07:26:22;14.00;;;9.33;;
69953;SDS011;57276;51.364;12.376;2023-06-19T07:32:24;13.45;;;10.02;;
69953;SDS011;57276;51.364;12.376;2023-06-19T07:38:25;24.17;;;14.00;;
69953;SDS011;57276;51.364;12.376;2023-06-19T07:44:27;18.90;;;10.32;;
69953;SDS011;57276;51.364;12.376;2023-06-19T07:50:28;16.52;;;10.27;;
69953;SDS011;57276;51.364;12.376;2023-06-19T07:56:30;13.50;;;9.60;;
69953;SDS011;57276;51.364;12.376;2023-06-19T08:02:33;14.90;;;8.85;;
69953;SDS011;57276;51.364;12.376;2023-06-19T08:08:35;17.73;;;9.20;;
69953;SDS011;57276;51.364;12.376;2023-06-19T08:14:36;15.20;;;8.73;;
69953;SDS011;57276;51.364;12.376;2023-06-19T08:20:39;14.77;;;8.80;;
69953;SDS011;57276;51.364;12.376;2023-06-19T08:26:41;12.37;;;8.77;;
69953;SDS011;57276;51.364;12.376;2023-06-19T08:32:43;12.73;;;9.40;;
69953;SDS011;57276;51.364;12.376;2023-06-19T08:38:44;11.67;;;9.07;;
69953;SDS011;57276;51.364;12.376;2023-06-19T08:44:48;13.32;;;9.80;;
69953;SDS011;57276;51.364;12.376;2023-06-19T08:50:50;13.52;;;9.40;;
69953;SDS011;57276;51.364;12.376;2023-06-19T08:56:51;18.00;;;9.13;;
69953;SDS011;57276;51.364;12.376;2023-06-19T09:03:00;17.20;;;9.02;;
69953;SDS011;57276;51.364;12.376;2023-06-19T09:09:15;12.13;;;7.70;;
69953;SDS011;57276;51.364;12.376;2023-06-19T09:15:18;13.05;;;8.07;;
69953;SDS011;57276;51.364;12.376;2023-06-19T09:21:20;10.90;;;7.65;;
69953;SDS011;57276;51.364;12.376;2023-06-19T09:27:23;11.83;;;7.20;;
69953;SDS011;57276;51.364;12.376;2023-06-19T09:33:26;12.02;;;7.35;;
69953;SDS011;57276;51.364;12.376;2023-06-19T09:39:28;9.77;;;7.43;;
69953;SDS011;57276;51.364;12.376;2023-06-19T09:45:31;10.50;;;8.05;;
69953;SDS011;57276;51.364;12.376;2023-06-19T09:51:33;10.10;;;7.88;;
69953;SDS011;57276;51.364;12.376;2023-06-19T09:57:37;9.07;;;7.67;;
69953;SDS011;57276;51.364;12.376;2023-06-19T10:03:39;11.02;;;7.97;;
69953;SDS011;57276;51.364;12.376;2023-06-19T10:09:42;10.77;;;7.90;;
69953;SDS011;57276;51.364;12.376;2023-06-19T10:15:44;11.82;;;9.13;;
69953;SDS011;57276;51.364;12.376;2023-06-19T10:21:48;11.90;;;8.02;;
69953;SDS011;57276;51.364;12.376;2023-06-19T10:27:50;12.13;;;8.20;;
69953;SDS011;57276;51.364;12.376;2023-06-19T10:33:53;9.98;;;8.70;;
69953;SDS011;57276;51.364;12.376;2023-06-19T10:39:55;12.67;;;8.93;;
69953;SDS011;57276;51.364;12.376;2023-06-19T10:45:56;12.40;;;8.73;;
69953;SDS011;57276;51.364;12.376;2023-06-19T10:51:59;13.48;;;9.18;;
69953;SDS011;57276;51.364;12.376;2023-06-19T10:58:00;10.63;;;9.00;;
69953;SDS011;57276;51.364;12.376;2023-06-19T11:04:05;11.82;;;9.48;;
69953;SDS011;57276;51.364;12.376;2023-06-19T11:10:07;12.83;;;9.03;;
69953;SDS011;57276;51.364;12.376;2023-06-19T11:16:09;10.57;;;9.10;;
69953;SDS011;57276;51.364;12.376;2023-06-19T11:22:11;11.93;;;9.32;;
69953;SDS011;57276;51.364;12.376;2023-06-19T11:28:13;12.07;;;9.20;;
69953;SDS011;57276;51.364;12.376;2023-06-19T11:34:15;11.77;;;9.55;;
69953;SDS011;57276;51.364;12.376;2023-06-19T11:40:17;12.30;;;9.47;;
69953;SDS011;57276;51.364;12.376;2023-06-19T11:46:27;12.38;;;9.55;;
69953;SDS011;57276;51.364;12.376;2023-06-19T11:52:29;13.93;;;9.93;;
69953;SDS011;57276;51.364;12.376;2023-06-19T11:58:31;13.00;;;10.27;;
69953;SDS011;57276;51.364;12.376;2023-06-19T12:04:33;13.75;;;9.68;;
69953;SDS011;57276;51.364;12.376;2023-06-19T12:10:35;13.00;;;9.47;;
69953;SDS011;57276;51.364;12.376;2023-06-19T12:16:36;11.60;;;10.40;;
69953;SDS011;57276;51.364;12.376;2023-06-19T12:22:38;14.07;;;10.55;;
69953;SDS011;57276;51.364;12.376;2023-06-19T12:28:39;11.60;;;10.40;;
69953;SDS011;57276;51.364;12.376;2023-06-19T12:34:41;14.88;;;10.68;;
69953;SDS011;57276;51.364;12.376;2023-06-19T12:40:47;12.30;;;11.00;;
69953;SDS011;57276;51.364;12.376;2023-06-19T12:46:49;12.83;;;11.40;;
69953;SDS011;57276;51.364;12.376;2023-06-19T12:52:51;12.73;;;11.52;;
69953;SDS011;57276;51.364;12.376;2023-06-19T12:58:52;12.98;;;10.98;;
69953;SDS011;57276;51.364;12.376;2023-06-19T13:04:54;16.03;;;11.10;;
69953;SDS011;57276;51.364;12.376;2023-06-19T13:10:55;13.18;;;11.25;;
69953;SDS011;57276;51.364;12.376;2023-06-19T13:16:57;10.97;;;9.77;;
69953;SDS011;57276;51.364;12.376;2023-06-19T13:22:59;12.93;;;11.27;;
69953;SDS011;57276;51.364;12.376;2023-06-19T13:29:02;12.55;;;10.88;;
69953;SDS011;57276;51.364;12.376;2023-06-19T13:35:07;13.13;;;11.73;;
69953;SDS011;57276;51.364;12.376;2023-06-19T13:41:09;13.30;;;11.33;;
69953;SDS011;57276;51.364;12.376;2023-06-19T13:47:10;12.77;;;11.57;;
69953;SDS011;57276;51.364;12.376;2023-06-19T13:53:12;12.63;;;11.33;;
69953;SDS011;57276;51.364;12.376;2023-06-19T13:59:14;11.83;;;10.73;;
69953;SDS011;57276;51.364;12.376;2023-06-19T14:05:16;11.80;;;10.70;;
69953;SDS011;57276;51.364;12.376;2023-06-19T14:11:18;13.10;;;10.30;;
69953;SDS011;57276;51.364;12.376;2023-06-19T14:17:20;11.63;;;10.25;;
69953;SDS011;57276;51.364;12.376;2023-06-19T14:23:22;11.48;;;10.38;;
69953;SDS011;57276;51.364;12.376;2023-06-19T14:29:23;11.00;;;9.50;;
69953;SDS011;57276;51.364;12.376;2023-06-19T14:35:25;11.18;;;10.05;;
69953;SDS011;57276;51.364;12.376;2023-06-19T14:41:27;11.27;;;10.07;;
69953;SDS011;57276;51.364;12.376;2023-06-19T14:47:28;11.83;;;10.53;;
69953;SDS011;57276;51.364;12.376;2023-06-19T14:53:30;10.50;;;9.50;;
69953;SDS011;57276;51.364;12.376;2023-06-19T14:59:32;11.30;;;10.23;;
69953;SDS011;57276;51.364;12.376;2023-06-19T15:05:33;11.97;;;10.87;;
69953;SDS011;57276;51.364;12.376;2023-06-19T15:11:35;11.05;;;9.95;;
69953;SDS011;57276;51.364;12.376;2023-06-19T15:17:37;11.77;;;9.32;;
69953;SDS011;57276;51.364;12.376;2023-06-19T15:23:38;10.53;;;9.40;;
69953;SDS011;57276;51.364;12.376;2023-06-19T15:29:40;10.07;;;8.63;;
69953;SDS011;57276;51.364;12.376;2023-06-19T15:35:42;9.50;;;8.50;;
69953;SDS011;57276;51.364;12.376;2023-06-19T15:41:43;9.47;;;8.20;;
69953;SDS011;57276;51.364;12.376;2023-06-19T15:47:46;9.10;;;8.10;;
69953;SDS011;57276;51.364;12.376;2023-06-19T15:53:48;8.40;;;7.50;;
69953;SDS011;57276;51.364;12.376;2023-06-19T15:59:58;9.75;;;7.82;;
69953;SDS011;57276;51.364;12.376;2023-06-19T16:06:00;9.00;;;7.82;;
69953;SDS011;57276;51.364;12.376;2023-06-19T16:12:09;8.90;;;8.00;;
69953;SDS011;57276;51.364;12.376;2023-06-19T16:18:13;9.48;;;8.30;;
69953;SDS011;57276;51.364;12.376;2023-06-19T16:24:14;9.40;;;8.27;;
69953;SDS011;57276;51.364;12.376;2023-06-19T16:30:16;9.32;;;7.45;;
69953;SDS011;57276;51.364;12.376;2023-06-19T16:36:18;8.30;;;7.25;;
69953;SDS011;57276;51.364;12.376;2023-06-19T16:42:21;9.97;;;6.80;;
69953;SDS011;57276;51.364;12.376;2023-06-19T16:48:24;8.23;;;7.40;;
69953;SDS011;57276;51.364;12.376;2023-06-19T16:54:25;8.90;;;7.50;;
69953;SDS011;57276;51.364;12.376;2023-06-19T17:00:27;10.30;;;7.07;;
69953;SDS011;57276;51.364;12.376;2023-06-19T17:06:29;8.77;;;7.38;;
69953;SDS011;57276;51.364;12.376;2023-06-19T17:12:31;9.20;;;7.30;;
69953;SDS011;57276;51.364;12.376;2023-06-19T17:18:34;8.52;;;7.43;;
69953;SDS011;57276;51.364;12.376;2023-06-19T17:24:36;7.97;;;7.10;;
69953;SDS011;57276;51.364;12.376;2023-06-19T17:30:37;9.90;;;7.40;;
69953;SDS011;57276;51.364;12.376;2023-06-19T17:36:41;9.88;;;7.43;;
69953;SDS011;57276;51.364;12.376;2023-06-19T17:42:45;9.67;;;7.90;;
69953;SDS011;57276;51.364;12.376;2023-06-19T17:48:47;11.15;;;7.50;;
69953;SDS011;57276;51.364;12.376;2023-06-19T17:54:48;11.13;;;8.17;;
69953;SDS011;57276;51.364;12.376;2023-06-19T18:00:52;11.93;;;7.70;;
69953;SDS011;57276;51.364;12.376;2023-06-19T18:06:54;9.40;;;6.85;;
69953;SDS011;57276;51.364;12.376;2023-06-19T18:12:56;10.37;;;7.20;;
69953;SDS011;57276;51.364;12.376;2023-06-19T18:18:59;9.90;;;7.03;;
69953;SDS011;57276;51.364;12.376;2023-06-19T18:25:00;10.53;;;6.93;;
69953;SDS011;57276;51.364;12.376;2023-06-19T18:31:02;9.73;;;7.82;;
69953;SDS011;57276;51.364;12.376;2023-06-19T18:37:04;11.68;;;8.43;;
69953;SDS011;57276;51.364;12.376;2023-06-19T18:43:06;9.90;;;8.03;;
69953;SDS011;57276;51.364;12.376;2023-06-19T18:49:07;10.05;;;7.40;;
69953;SDS011;57276;51.364;12.376;2023-06-19T18:55:09;8.70;;;7.73;;
69953;SDS011;57276;51.364;12.376;2023-06-19T19:01:10;10.40;;;7.85;;
69953;SDS011;57276;51.364;12.376;2023-06-19T19:07:12;9.48;;;8.20;;
69953;SDS011;57276;51.364;12.376;2023-06-19T19:13:14;9.07;;;7.30;;
69953;SDS011;57276;51.364;12.376;2023-06-19T19:19:16;14.20;;;8.10;;
69953;SDS011;57276;51.364;12.376;2023-06-19T19:25:17;9.37;;;7.47;;
69953;SDS011;57276;51.364;12.376;2023-06-19T19:31:20;9.43;;;7.68;;
69953;SDS011;57276;51.364;12.376;2023-06-19T19:37:22;12.52;;;9.07;;
69953;SDS011;57276;51.364;12.376;2023-06-19T19:43:24;11.07;;;8.60;;
69953;SDS011;57276;51.364;12.376;2023-06-19T19:49:26;10.00;;;8.75;;
69953;SDS011;57276;51.364;12.376;2023-06-19T19:55:27;12.50;;;10.30;;
69953;SDS011;57276;51.364;12.376;2023-06-19T20:01:29;11.77;;;9.02;;
69953;SDS011;57276;51.364;12.376;2023-06-19T20:07:31;12.07;;;9.93;;
69953;SDS011;57276;51.364;12.376;2023-06-19T20:13:33;11.40;;;8.93;;
69953;SDS011;57276;51.364;12.376;2023-06-19T20:19:35;13.32;;;10.27;;
69953;SDS011;57276;51.364;12.376;2023-06-19T20:25:36;13.70;;;10.20;;
69953;SDS011;57276;51.364;12.376;2023-06-19T20:31:38;15.05;;;11.10;;
69953;SDS011;57276;51.364;12.376;2023-06-19T20:37:39;22.05;;;16.42;;
69953;SDS011;57276;51.364;12.376;2023-06-19T20:43:41;17.60;;;13.77;;
69953;SDS011;57276;51.364;12.376;2023-06-19T20:49:46;15.80;;;13.35;;
69953;SDS011;57276;51.364;12.376;2023-06-19T20:55:48;15.27;;;12.50;;
69953;SDS011;57276;51.364;12.376;2023-06-19T21:01:49;14.70;;;11.32;;
69953;SDS011;57276;51.364;12.376;2023-06-19T21:07:57;13.50;;;10.57;;
69953;SDS011;57276;51.364;12.376;2023-06-19T21:13:59;12.93;;;10.20;;
69953;SDS011;57276;51.364;12.376;2023-06-19T21:20:01;15.13;;;10.13;;
69953;SDS011;57276;51.364;12.376;2023-06-19T21:26:10;11.93;;;9.27;;
69953;SDS011;57276;51.364;12.376;2023-06-19T21:32:11;12.75;;;9.52;;
69953;SDS011;57276;51.364;12.376;2023-06-19T21:38:13;12.05;;;9.10;;
69953;SDS011;57276;51.364;12.376;2023-06-19T21:44:14;12.33;;;8.40;;
69953;SDS011;57276;51.364;12.376;2023-06-19T21:50:16;12.02;;;7.80;;
69953;SDS011;57276;51.364;12.376;2023-06-19T21:56:20;10.37;;;7.60;;
69953;SDS011;57276;51.364;12.376;2023-06-19T22:02:22;8.52;;;7.03;;
69953;SDS011;57276;51.364;12.376;2023-06-19T22:08:23;8.63;;;6.97;;
69953;SDS011;57276;51.364;12.376;2023-06-19T22:14:41;9.53;;;6.90;;
69953;SDS011;57276;51.364;12.376;2023-06-19T22:20:44;10.13;;;7.38;;
69953;SDS011;57276;51.364;12.376;2023-06-19T22:26:46;10.47;;;7.50;;
69953;SDS011;57276;51.364;12.376;2023-06-19T22:32:47;8.95;;;7.43;;
69953;SDS011;57276;51.364;12.376;2023-06-19T22:38:49;11.20;;;7.55;;
69953;SDS011;57276;51.364;12.376;2023-06-19T22:44:51;9.23;;;7.40;;
69953;SDS011;57276;51.364;12.376;2023-06-19T22:50:52;11.15;;;8.13;;
69953;SDS011;57276;51.364;12.376;2023-06-19T22:56:54;9.20;;;7.63;;
69953;SDS011;57276;51.364;12.376;2023-06-19T23:02:56;9.65;;;7.63;;
69953;SDS011;57276;51.364;12.376;2023-06-19T23:08:57;11.05;;;7.75;;
69953;SDS011;57276;51.364;12.376;2023-06-19T23:14:59;10.97;;;7.80;;
69953;SDS011;57276;51.364;12.376;2023-06-19T23:21:01;9.90;;;8.10;;
69953;SDS011;57276;51.364;12.376;2023-06-19T23:27:02;10.70;;;8.20;;
69953;SDS011;57276;51.364;12.376;2023-06-19T23:33:04;10.77;;;7.97;;
69953;SDS011;57276;51.364;12.376;2023-06-19T23:39:06;10.45;;;7.70;;
69953;SDS011;57276;51.364;12.376;2023-06-19T23:45:07;10.97;;;7.53;;
69953;SDS011;57276;51.364;12.376;2023-06-19T23:51:09;10.18;;;7.63;;
69953;SDS011;57276;51.364;12.376;2023-06-19T23:57:11;9.23;;;7.40;;
